sensor_id;sensor_type;location;lat;lon;timestamp;pressure;altitude;pressure_sealevel;temperature
5571;BMP180;2808;51.240;6.794;2023-02-03T00:01:04;102012.00;;;8.80
5571;BMP180;2808;51.240;6.794;2023-02-03T00:03:35;102011.00;;;8.80
5571;BMP180;2808;51.240;6.794;2023-02-03T00:06:04;102014.00;;;8.80
5571;BMP180;2808;51.240;6.794;2023-02-03T00:08:31;102005.00;;;8.80
5571;BMP180;2808;51.240;6.794;2023-02-03T00:10:59;101993.00;;;8.80
5571;BMP180;2808;51.240;6.794;2023-02-03T00:13:26;101991.00;;;8.80
5571;BMP180;2808;51.240;6.794;2023-02-03T00:15:54;101985.00;;;8.80
5571;BMP180;2808;51.240;6.794;2023-02-03T00:18:21;101977.00;;;8.80
5571;BMP180;2808;51.240;6.794;2023-02-03T00:20:49;101977.00;;;8.80
5571;BMP180;2808;51.240;6.794;2023-02-03T00:23:18;101989.00;;;8.80
5571;BMP180;2808;51.240;6.794;2023-02-03T00:25:45;101981.00;;;8.80
5571;BMP180;2808;51.240;6.794;2023-02-03T00:28:13;101989.00;;;8.80
5571;BMP180;2808;51.240;6.794;2023-02-03T00:30:40;101995.00;;;8.80
5571;BMP180;2808;51.240;6.794;2023-02-03T00:33:08;101988.00;;;8.80
5571;BMP180;2808;51.240;6.794;2023-02-03T00:35:37;101976.00;;;8.80
5571;BMP180;2808;51.240;6.794;2023-02-03T00:38:05;101966.00;;;8.80
5571;BMP180;2808;51.240;6.794;2023-02-03T00:40:33;101966.00;;;8.80
5571;BMP180;2808;51.240;6.794;2023-02-03T00:43:01;101961.00;;;8.80
5571;BMP180;2808;51.240;6.794;2023-02-03T00:45:28;101948.00;;;8.80
5571;BMP180;2808;51.240;6.794;2023-02-03T00:47:55;101964.00;;;8.80
5571;BMP180;2808;51.240;6.794;2023-02-03T00:50:23;101973.00;;;8.80
5571;BMP180;2808;51.240;6.794;2023-02-03T00:52:50;101963.00;;;8.80
5571;BMP180;2808;51.240;6.794;2023-02-03T00:55:17;101964.00;;;8.80
5571;BMP180;2808;51.240;6.794;2023-02-03T00:57:46;101971.00;;;8.80
5571;BMP180;2808;51.240;6.794;2023-02-03T01:00:14;101977.00;;;8.80
5571;BMP180;2808;51.240;6.794;2023-02-03T01:02:42;101973.00;;;8.80
5571;BMP180;2808;51.240;6.794;2023-02-03T01:05:09;101976.00;;;8.80
5571;BMP180;2808;51.240;6.794;2023-02-03T01:07:36;101986.00;;;8.80
5571;BMP180;2808;51.240;6.794;2023-02-03T01:10:05;101988.00;;;8.90
5571;BMP180;2808;51.240;6.794;2023-02-03T01:12:33;102003.00;;;8.80
5571;BMP180;2808;51.240;6.794;2023-02-03T01:15:01;102009.00;;;8.80
5571;BMP180;2808;51.240;6.794;2023-02-03T01:17:29;102019.00;;;8.90
5571;BMP180;2808;51.240;6.794;2023-02-03T01:19:57;102022.00;;;8.90
5571;BMP180;2808;51.240;6.794;2023-02-03T01:22:24;102023.00;;;8.90
5571;BMP180;2808;51.240;6.794;2023-02-03T01:24:51;102024.00;;;8.90
5571;BMP180;2808;51.240;6.794;2023-02-03T01:27:19;102024.00;;;8.90
5571;BMP180;2808;51.240;6.794;2023-02-03T01:29:46;102016.00;;;8.90
5571;BMP180;2808;51.240;6.794;2023-02-03T01:32:15;102018.00;;;8.90
5571;BMP180;2808;51.240;6.794;2023-02-03T01:34:45;102024.00;;;8.90
5571;BMP180;2808;51.240;6.794;2023-02-03T01:37:13;102023.00;;;8.90
5571;BMP180;2808;51.240;6.794;2023-02-03T01:39:42;102022.00;;;8.90
5571;BMP180;2808;51.240;6.794;2023-02-03T01:42:12;102018.00;;;8.90
5571;BMP180;2808;51.240;6.794;2023-02-03T01:44:45;102022.00;;;8.90
5571;BMP180;2808;51.240;6.794;2023-02-03T01:47:27;102026.00;;;8.90
5571;BMP180;2808;51.240;6.794;2023-02-03T01:50:02;102023.00;;;8.90
5571;BMP180;2808;51.240;6.794;2023-02-03T01:52:32;102026.00;;;8.90
5571;BMP180;2808;51.240;6.794;2023-02-03T01:55:02;102022.00;;;8.90
5571;BMP180;2808;51.240;6.794;2023-02-03T01:57:34;102011.00;;;8.90
5571;BMP180;2808;51.240;6.794;2023-02-03T02:00:04;102006.00;;;8.90
5571;BMP180;2808;51.240;6.794;2023-02-03T02:02:34;102011.00;;;8.90
5571;BMP180;2808;51.240;6.794;2023-02-03T02:05:05;102008.00;;;8.90
5571;BMP180;2808;51.240;6.794;2023-02-03T02:07:34;102013.00;;;8.90
5571;BMP180;2808;51.240;6.794;2023-02-03T02:10:03;102034.00;;;8.90
5571;BMP180;2808;51.240;6.794;2023-02-03T02:12:31;102020.00;;;8.90
5571;BMP180;2808;51.240;6.794;2023-02-03T02:14:58;102014.00;;;8.90
5571;BMP180;2808;51.240;6.794;2023-02-03T02:17:47;102002.00;;;8.90
5571;BMP180;2808;51.240;6.794;2023-02-03T02:20:36;102000.00;;;9.00
5571;BMP180;2808;51.240;6.794;2023-02-03T02:23:40;101991.00;;;9.00
5571;BMP180;2808;51.240;6.794;2023-02-03T02:29:27;101972.00;;;8.90
5571;BMP180;2808;51.240;6.794;2023-02-03T02:32:12;101970.00;;;9.00
5571;BMP180;2808;51.240;6.794;2023-02-03T02:34:52;101972.00;;;9.00
5571;BMP180;2808;51.240;6.794;2023-02-03T02:37:29;101980.00;;;9.00
5571;BMP180;2808;51.240;6.794;2023-02-03T02:40:08;101971.00;;;9.00
5571;BMP180;2808;51.240;6.794;2023-02-03T02:42:50;101967.00;;;8.90
5571;BMP180;2808;51.240;6.794;2023-02-03T02:45:23;101970.00;;;8.90
5571;BMP180;2808;51.240;6.794;2023-02-03T02:47:58;101983.00;;;8.90
5571;BMP180;2808;51.240;6.794;2023-02-03T02:50:32;101974.00;;;8.90
5571;BMP180;2808;51.240;6.794;2023-02-03T02:53:01;101974.00;;;8.90
5571;BMP180;2808;51.240;6.794;2023-02-03T02:55:32;101974.00;;;9.00
5571;BMP180;2808;51.240;6.794;2023-02-03T02:58:04;101985.00;;;8.90
5571;BMP180;2808;51.240;6.794;2023-02-03T03:00:34;101973.00;;;8.90
5571;BMP180;2808;51.240;6.794;2023-02-03T03:03:17;101968.00;;;9.00
5571;BMP180;2808;51.240;6.794;2023-02-03T03:05:50;101953.00;;;8.90
5571;BMP180;2808;51.240;6.794;2023-02-03T03:08:22;101941.00;;;8.90
5571;BMP180;2808;51.240;6.794;2023-02-03T03:10:52;101940.00;;;8.90
5571;BMP180;2808;51.240;6.794;2023-02-03T03:13:23;101945.00;;;8.90
5571;BMP180;2808;51.240;6.794;2023-02-03T03:15:53;101945.00;;;8.90
5571;BMP180;2808;51.240;6.794;2023-02-03T03:18:26;101949.00;;;8.90
5571;BMP180;2808;51.240;6.794;2023-02-03T03:20:56;101960.00;;;8.90
5571;BMP180;2808;51.240;6.794;2023-02-03T03:23:33;101979.00;;;8.90
5571;BMP180;2808;51.240;6.794;2023-02-03T03:26:08;101973.00;;;8.90
5571;BMP180;2808;51.240;6.794;2023-02-03T03:28:44;101981.00;;;8.90
5571;BMP180;2808;51.240;6.794;2023-02-03T03:31:14;101977.00;;;8.90
5571;BMP180;2808;51.240;6.794;2023-02-03T03:33:43;101972.00;;;8.90
5571;BMP180;2808;51.240;6.794;2023-02-03T03:36:17;101973.00;;;8.90
5571;BMP180;2808;51.240;6.794;2023-02-03T03:38:49;101971.00;;;8.90
5571;BMP180;2808;51.240;6.794;2023-02-03T03:41:27;101967.00;;;8.90
5571;BMP180;2808;51.240;6.794;2023-02-03T03:43:59;101959.00;;;8.90
5571;BMP180;2808;51.240;6.794;2023-02-03T03:46:32;101956.00;;;8.90
5571;BMP180;2808;51.240;6.794;2023-02-03T03:49:04;101970.00;;;8.90
5571;BMP180;2808;51.240;6.794;2023-02-03T03:51:36;101972.00;;;8.90
5571;BMP180;2808;51.240;6.794;2023-02-03T03:54:14;101963.00;;;8.90
5571;BMP180;2808;51.240;6.794;2023-02-03T03:56:47;101965.00;;;9.00
5571;BMP180;2808;51.240;6.794;2023-02-03T03:59:19;101953.00;;;8.90
5571;BMP180;2808;51.240;6.794;2023-02-03T04:01:48;101954.00;;;8.90
5571;BMP180;2808;51.240;6.794;2023-02-03T04:04:18;101954.00;;;8.90
5571;BMP180;2808;51.240;6.794;2023-02-03T04:06:47;101963.00;;;8.90
5571;BMP180;2808;51.240;6.794;2023-02-03T04:09:14;101951.00;;;8.90
5571;BMP180;2808;51.240;6.794;2023-02-03T04:11:42;101961.00;;;8.90
5571;BMP180;2808;51.240;6.794;2023-02-03T04:14:27;101965.00;;;8.90
5571;BMP180;2808;51.240;6.794;2023-02-03T04:16:55;101969.00;;;9.00
5571;BMP180;2808;51.240;6.794;2023-02-03T04:19:24;101979.00;;;8.90
5571;BMP180;2808;51.240;6.794;2023-02-03T04:21:51;101970.00;;;9.00
5571;BMP180;2808;51.240;6.794;2023-02-03T04:24:19;101967.00;;;9.00
5571;BMP180;2808;51.240;6.794;2023-02-03T04:26:46;101972.00;;;9.00
5571;BMP180;2808;51.240;6.794;2023-02-03T04:29:13;101962.00;;;9.00
5571;BMP180;2808;51.240;6.794;2023-02-03T04:31:44;101955.00;;;9.00
5571;BMP180;2808;51.240;6.794;2023-02-03T04:34:11;101965.00;;;9.00
5571;BMP180;2808;51.240;6.794;2023-02-03T04:36:40;101961.00;;;9.00
5571;BMP180;2808;51.240;6.794;2023-02-03T04:39:07;101978.00;;;9.00
5571;BMP180;2808;51.240;6.794;2023-02-03T04:41:34;101970.00;;;9.00
5571;BMP180;2808;51.240;6.794;2023-02-03T04:44:02;101957.00;;;9.00
5571;BMP180;2808;51.240;6.794;2023-02-03T04:46:29;101959.00;;;9.00
5571;BMP180;2808;51.240;6.794;2023-02-03T04:48:57;101954.00;;;9.00
5571;BMP180;2808;51.240;6.794;2023-02-03T04:51:24;101943.00;;;9.00
5571;BMP180;2808;51.240;6.794;2023-02-03T04:53:53;101946.00;;;9.00
5571;BMP180;2808;51.240;6.794;2023-02-03T04:56:20;101952.00;;;9.00
5571;BMP180;2808;51.240;6.794;2023-02-03T04:58:48;101945.00;;;9.00
5571;BMP180;2808;51.240;6.794;2023-02-03T05:01:17;101930.00;;;9.00
5571;BMP180;2808;51.240;6.794;2023-02-03T05:03:44;101937.00;;;9.00
5571;BMP180;2808;51.240;6.794;2023-02-03T05:06:11;101937.00;;;9.00
5571;BMP180;2808;51.240;6.794;2023-02-03T05:08:39;101943.00;;;9.00
5571;BMP180;2808;51.240;6.794;2023-02-03T05:11:07;101935.00;;;9.00
5571;BMP180;2808;51.240;6.794;2023-02-03T05:13:35;101933.00;;;8.90
5571;BMP180;2808;51.240;6.794;2023-02-03T05:16:02;101942.00;;;9.00
5571;BMP180;2808;51.240;6.794;2023-02-03T05:18:30;101930.00;;;9.00
5571;BMP180;2808;51.240;6.794;2023-02-03T05:20:57;101927.00;;;8.90
5571;BMP180;2808;51.240;6.794;2023-02-03T05:23:24;101932.00;;;8.90
5571;BMP180;2808;51.240;6.794;2023-02-03T05:25:52;101922.00;;;9.00
5571;BMP180;2808;51.240;6.794;2023-02-03T05:28:20;101916.00;;;9.00
5571;BMP180;2808;51.240;6.794;2023-02-03T05:30:48;101908.00;;;9.00
5571;BMP180;2808;51.240;6.794;2023-02-03T05:33:15;101919.00;;;9.00
5571;BMP180;2808;51.240;6.794;2023-02-03T05:35:42;101924.00;;;9.00
5571;BMP180;2808;51.240;6.794;2023-02-03T05:38:10;101930.00;;;9.00
5571;BMP180;2808;51.240;6.794;2023-02-03T05:40:37;101928.00;;;9.00
5571;BMP180;2808;51.240;6.794;2023-02-03T05:43:24;101934.00;;;9.00
5571;BMP180;2808;51.240;6.794;2023-02-03T05:45:51;101943.00;;;9.00
5571;BMP180;2808;51.240;6.794;2023-02-03T05:48:18;101949.00;;;9.00
5571;BMP180;2808;51.240;6.794;2023-02-03T05:50:46;101956.00;;;9.00
5571;BMP180;2808;51.240;6.794;2023-02-03T05:53:13;101945.00;;;9.00
5571;BMP180;2808;51.240;6.794;2023-02-03T05:55:41;101944.00;;;9.10
5571;BMP180;2808;51.240;6.794;2023-02-03T05:58:08;101948.00;;;9.10
5571;BMP180;2808;51.240;6.794;2023-02-03T06:00:37;101941.00;;;9.10
5571;BMP180;2808;51.240;6.794;2023-02-03T06:03:04;101945.00;;;9.10
5571;BMP180;2808;51.240;6.794;2023-02-03T06:05:33;101946.00;;;9.10
5571;BMP180;2808;51.240;6.794;2023-02-03T06:08:03;101952.00;;;9.10
5571;BMP180;2808;51.240;6.794;2023-02-03T06:10:30;101953.00;;;9.10
5571;BMP180;2808;51.240;6.794;2023-02-03T06:12:57;101946.00;;;9.10
5571;BMP180;2808;51.240;6.794;2023-02-03T06:15:25;101939.00;;;9.10
5571;BMP180;2808;51.240;6.794;2023-02-03T06:17:54;101936.00;;;9.10
5571;BMP180;2808;51.240;6.794;2023-02-03T06:20:21;101948.00;;;9.10
5571;BMP180;2808;51.240;6.794;2023-02-03T06:22:49;101952.00;;;9.10
5571;BMP180;2808;51.240;6.794;2023-02-03T06:25:16;101948.00;;;9.10
5571;BMP180;2808;51.240;6.794;2023-02-03T06:27:44;101950.00;;;9.10
5571;BMP180;2808;51.240;6.794;2023-02-03T06:30:13;101973.00;;;9.10
5571;BMP180;2808;51.240;6.794;2023-02-03T06:32:40;101973.00;;;9.10
5571;BMP180;2808;51.240;6.794;2023-02-03T06:35:09;101958.00;;;9.10
5571;BMP180;2808;51.240;6.794;2023-02-03T06:37:37;101939.00;;;9.20
5571;BMP180;2808;51.240;6.794;2023-02-03T06:40:05;101930.00;;;9.20
5571;BMP180;2808;51.240;6.794;2023-02-03T06:42:33;101943.00;;;9.20
5571;BMP180;2808;51.240;6.794;2023-02-03T06:45:00;101942.00;;;9.20
5571;BMP180;2808;51.240;6.794;2023-02-03T06:47:28;101948.00;;;9.20
5571;BMP180;2808;51.240;6.794;2023-02-03T06:49:55;101947.00;;;9.20
5571;BMP180;2808;51.240;6.794;2023-02-03T06:52:24;101933.00;;;9.20
5571;BMP180;2808;51.240;6.794;2023-02-03T06:54:51;101933.00;;;9.20
5571;BMP180;2808;51.240;6.794;2023-02-03T06:57:18;101944.00;;;9.20
5571;BMP180;2808;51.240;6.794;2023-02-03T06:59:49;101936.00;;;9.20
5571;BMP180;2808;51.240;6.794;2023-02-03T07:02:16;101946.00;;;9.20
5571;BMP180;2808;51.240;6.794;2023-02-03T07:04:44;101938.00;;;9.20
5571;BMP180;2808;51.240;6.794;2023-02-03T07:07:11;101934.00;;;9.30
5571;BMP180;2808;51.240;6.794;2023-02-03T07:09:40;101955.00;;;9.30
5571;BMP180;2808;51.240;6.794;2023-02-03T07:12:08;101937.00;;;9.30
5571;BMP180;2808;51.240;6.794;2023-02-03T07:14:38;101949.00;;;9.30
5571;BMP180;2808;51.240;6.794;2023-02-03T07:17:05;101959.00;;;9.30
5571;BMP180;2808;51.240;6.794;2023-02-03T07:19:33;101963.00;;;9.30
5571;BMP180;2808;51.240;6.794;2023-02-03T07:22:01;101953.00;;;9.40
5571;BMP180;2808;51.240;6.794;2023-02-03T07:24:28;101948.00;;;9.40
5571;BMP180;2808;51.240;6.794;2023-02-03T07:26:57;101949.00;;;9.40
5571;BMP180;2808;51.240;6.794;2023-02-03T07:29:24;101945.00;;;9.30
5571;BMP180;2808;51.240;6.794;2023-02-03T07:31:51;101938.00;;;9.40
5571;BMP180;2808;51.240;6.794;2023-02-03T07:34:19;101951.00;;;9.40
5571;BMP180;2808;51.240;6.794;2023-02-03T07:36:49;101944.00;;;9.40
5571;BMP180;2808;51.240;6.794;2023-02-03T07:39:17;101953.00;;;9.40
5571;BMP180;2808;51.240;6.794;2023-02-03T07:41:44;101959.00;;;9.40
5571;BMP180;2808;51.240;6.794;2023-02-03T07:44:13;101953.00;;;9.40
5571;BMP180;2808;51.240;6.794;2023-02-03T07:46:42;101943.00;;;9.40
5571;BMP180;2808;51.240;6.794;2023-02-03T07:49:10;101943.00;;;9.40
5571;BMP180;2808;51.240;6.794;2023-02-03T07:51:38;101947.00;;;9.40
5571;BMP180;2808;51.240;6.794;2023-02-03T07:54:05;101948.00;;;9.40
5571;BMP180;2808;51.240;6.794;2023-02-03T07:56:33;101940.00;;;9.40
5571;BMP180;2808;51.240;6.794;2023-02-03T07:59:03;101945.00;;;9.40
5571;BMP180;2808;51.240;6.794;2023-02-03T08:01:32;101948.00;;;9.40
5571;BMP180;2808;51.240;6.794;2023-02-03T08:03:59;101957.00;;;9.40
5571;BMP180;2808;51.240;6.794;2023-02-03T08:06:30;101960.00;;;9.40
5571;BMP180;2808;51.240;6.794;2023-02-03T08:08:57;101956.00;;;9.50
5571;BMP180;2808;51.240;6.794;2023-02-03T08:11:25;101968.00;;;9.50
5571;BMP180;2808;51.240;6.794;2023-02-03T08:13:52;101968.00;;;9.50
5571;BMP180;2808;51.240;6.794;2023-02-03T08:16:20;101979.00;;;9.50
5571;BMP180;2808;51.240;6.794;2023-02-03T08:18:48;101982.00;;;9.50
5571;BMP180;2808;51.240;6.794;2023-02-03T08:21:16;101989.00;;;9.50
5571;BMP180;2808;51.240;6.794;2023-02-03T08:23:43;102011.00;;;9.50
5571;BMP180;2808;51.240;6.794;2023-02-03T08:26:11;101996.00;;;9.50
5571;BMP180;2808;51.240;6.794;2023-02-03T08:28:38;101993.00;;;9.50
5571;BMP180;2808;51.240;6.794;2023-02-03T08:31:09;101991.00;;;9.50
5571;BMP180;2808;51.240;6.794;2023-02-03T08:33:37;101985.00;;;9.50
5571;BMP180;2808;51.240;6.794;2023-02-03T08:36:07;101992.00;;;9.50
5571;BMP180;2808;51.240;6.794;2023-02-03T08:38:34;101993.00;;;9.50
5571;BMP180;2808;51.240;6.794;2023-02-03T08:41:06;101988.00;;;9.50
5571;BMP180;2808;51.240;6.794;2023-02-03T08:43:34;101989.00;;;9.50
5571;BMP180;2808;51.240;6.794;2023-02-03T08:46:09;102001.00;;;9.50
5571;BMP180;2808;51.240;6.794;2023-02-03T08:48:39;101996.00;;;9.60
5571;BMP180;2808;51.240;6.794;2023-02-03T08:51:12;101991.00;;;9.50
5571;BMP180;2808;51.240;6.794;2023-02-03T08:53:40;101998.00;;;9.60
5571;BMP180;2808;51.240;6.794;2023-02-03T08:56:08;101992.00;;;9.50
5571;BMP180;2808;51.240;6.794;2023-02-03T08:58:36;101999.00;;;9.50
5571;BMP180;2808;51.240;6.794;2023-02-03T09:01:08;101987.00;;;9.50
5571;BMP180;2808;51.240;6.794;2023-02-03T09:03:36;102007.00;;;9.50
5571;BMP180;2808;51.240;6.794;2023-02-03T09:06:04;102002.00;;;9.40
5571;BMP180;2808;51.240;6.794;2023-02-03T09:08:34;102008.00;;;9.40
5571;BMP180;2808;51.240;6.794;2023-02-03T09:11:08;102009.00;;;9.40
5571;BMP180;2808;51.240;6.794;2023-02-03T09:13:35;102011.00;;;9.40
5571;BMP180;2808;51.240;6.794;2023-02-03T09:16:11;102011.00;;;9.40
5571;BMP180;2808;51.240;6.794;2023-02-03T09:18:49;102020.00;;;9.40
5571;BMP180;2808;51.240;6.794;2023-02-03T09:21:17;102010.00;;;9.40
5571;BMP180;2808;51.240;6.794;2023-02-03T09:23:46;102010.00;;;9.40
5571;BMP180;2808;51.240;6.794;2023-02-03T09:26:14;102013.00;;;9.40
5571;BMP180;2808;51.240;6.794;2023-02-03T09:28:59;102019.00;;;9.40
5571;BMP180;2808;51.240;6.794;2023-02-03T09:31:27;102018.00;;;9.30
5571;BMP180;2808;51.240;6.794;2023-02-03T09:33:54;102019.00;;;9.30
5571;BMP180;2808;51.240;6.794;2023-02-03T09:36:27;102009.00;;;9.30
5571;BMP180;2808;51.240;6.794;2023-02-03T09:39:01;102015.00;;;9.30
5571;BMP180;2808;51.240;6.794;2023-02-03T09:44:33;102015.00;;;9.30
5571;BMP180;2808;51.240;6.794;2023-02-03T09:47:16;102021.00;;;9.30
5571;BMP180;2808;51.240;6.794;2023-02-03T09:49:47;102017.00;;;9.30
5571;BMP180;2808;51.240;6.794;2023-02-03T09:52:21;102015.00;;;9.30
5571;BMP180;2808;51.240;6.794;2023-02-03T09:55:00;102011.00;;;9.30
5571;BMP180;2808;51.240;6.794;2023-02-03T09:57:36;102017.00;;;9.20
5571;BMP180;2808;51.240;6.794;2023-02-03T10:00:19;102019.00;;;9.30
5571;BMP180;2808;51.240;6.794;2023-02-03T10:02:56;102026.00;;;9.20
5571;BMP180;2808;51.240;6.794;2023-02-03T10:05:42;102024.00;;;9.20
5571;BMP180;2808;51.240;6.794;2023-02-03T10:08:27;102032.00;;;9.20
5571;BMP180;2808;51.240;6.794;2023-02-03T10:11:00;102019.00;;;9.20
5571;BMP180;2808;51.240;6.794;2023-02-03T10:13:51;102031.00;;;9.20
5571;BMP180;2808;51.240;6.794;2023-02-03T10:16:42;102030.00;;;9.20
5571;BMP180;2808;51.240;6.794;2023-02-03T10:19:14;102013.00;;;9.30
5571;BMP180;2808;51.240;6.794;2023-02-03T10:21:47;102026.00;;;9.20
5571;BMP180;2808;51.240;6.794;2023-02-03T10:24:25;102018.00;;;9.30
5571;BMP180;2808;51.240;6.794;2023-02-03T10:26:58;102011.00;;;9.30
5571;BMP180;2808;51.240;6.794;2023-02-03T10:29:30;102026.00;;;9.30
5571;BMP180;2808;51.240;6.794;2023-02-03T10:32:06;102026.00;;;9.30
5571;BMP180;2808;51.240;6.794;2023-02-03T10:34:39;102007.00;;;9.30
5571;BMP180;2808;51.240;6.794;2023-02-03T10:37:19;102016.00;;;9.30
5571;BMP180;2808;51.240;6.794;2023-02-03T10:39:50;102012.00;;;9.30
5571;BMP180;2808;51.240;6.794;2023-02-03T10:42:25;102012.00;;;9.30
5571;BMP180;2808;51.240;6.794;2023-02-03T10:45:16;102016.00;;;9.40
5571;BMP180;2808;51.240;6.794;2023-02-03T10:47:52;102030.00;;;9.40
5571;BMP180;2808;51.240;6.794;2023-02-03T10:50:45;102016.00;;;9.40
5571;BMP180;2808;51.240;6.794;2023-02-03T10:53:22;102009.00;;;9.50
5571;BMP180;2808;51.240;6.794;2023-02-03T10:56:02;102014.00;;;9.50
5571;BMP180;2808;51.240;6.794;2023-02-03T10:58:37;102011.00;;;9.50
5571;BMP180;2808;51.240;6.794;2023-02-03T11:01:10;102005.00;;;9.50
5571;BMP180;2808;51.240;6.794;2023-02-03T11:03:40;102011.00;;;9.60
5571;BMP180;2808;51.240;6.794;2023-02-03T11:06:11;102000.00;;;9.60
5571;BMP180;2808;51.240;6.794;2023-02-03T11:08:43;102001.00;;;9.60
5571;BMP180;2808;51.240;6.794;2023-02-03T11:11:14;102002.00;;;9.60
5571;BMP180;2808;51.240;6.794;2023-02-03T11:13:52;101997.00;;;9.70
5571;BMP180;2808;51.240;6.794;2023-02-03T11:16:20;101998.00;;;9.70
5571;BMP180;2808;51.240;6.794;2023-02-03T11:18:54;102005.00;;;9.70
5571;BMP180;2808;51.240;6.794;2023-02-03T11:21:24;102002.00;;;9.70
5571;BMP180;2808;51.240;6.794;2023-02-03T11:24:12;102011.00;;;9.70
5571;BMP180;2808;51.240;6.794;2023-02-03T11:26:44;102019.00;;;9.70
5571;BMP180;2808;51.240;6.794;2023-02-03T11:29:18;102016.00;;;9.70
5571;BMP180;2808;51.240;6.794;2023-02-03T11:31:53;102030.00;;;9.70
5571;BMP180;2808;51.240;6.794;2023-02-03T11:34:23;102033.00;;;9.70
5571;BMP180;2808;51.240;6.794;2023-02-03T11:36:51;102021.00;;;9.70
5571;BMP180;2808;51.240;6.794;2023-02-03T11:39:27;102016.00;;;9.70
5571;BMP180;2808;51.240;6.794;2023-02-03T11:42:08;102024.00;;;9.70
5571;BMP180;2808;51.240;6.794;2023-02-03T11:44:48;102037.00;;;9.70
5571;BMP180;2808;51.240;6.794;2023-02-03T11:47:21;102039.00;;;9.70
5571;BMP180;2808;51.240;6.794;2023-02-03T11:52:59;102030.00;;;9.70
5571;BMP180;2808;51.240;6.794;2023-02-03T11:55:43;102025.00;;;9.70
5571;BMP180;2808;51.240;6.794;2023-02-03T11:58:39;102041.00;;;9.70
5571;BMP180;2808;51.240;6.794;2023-02-03T12:01:15;102018.00;;;9.70
5571;BMP180;2808;51.240;6.794;2023-02-03T12:04:07;102033.00;;;9.70
5571;BMP180;2808;51.240;6.794;2023-02-03T12:07:08;102032.00;;;9.70
5571;BMP180;2808;51.240;6.794;2023-02-03T12:09:47;102021.00;;;9.70
5571;BMP180;2808;51.240;6.794;2023-02-03T12:12:32;102023.00;;;9.80
5571;BMP180;2808;51.240;6.794;2023-02-03T12:15:19;102028.00;;;9.80
5571;BMP180;2808;51.240;6.794;2023-02-03T12:18:13;102036.00;;;9.80
5571;BMP180;2808;51.240;6.794;2023-02-03T12:20:53;102038.00;;;9.80
5571;BMP180;2808;51.240;6.794;2023-02-03T12:23:30;102028.00;;;9.80
5571;BMP180;2808;51.240;6.794;2023-02-03T12:26:09;102025.00;;;9.80
5571;BMP180;2808;51.240;6.794;2023-02-03T12:28:47;102029.00;;;9.80
5571;BMP180;2808;51.240;6.794;2023-02-03T12:31:23;102040.00;;;9.80
5571;BMP180;2808;51.240;6.794;2023-02-03T12:34:01;102045.00;;;9.80
5571;BMP180;2808;51.240;6.794;2023-02-03T12:36:35;102052.00;;;9.80
5571;BMP180;2808;51.240;6.794;2023-02-03T12:39:16;102035.00;;;9.80
5571;BMP180;2808;51.240;6.794;2023-02-03T12:41:54;102041.00;;;9.80
5571;BMP180;2808;51.240;6.794;2023-02-03T12:44:30;102032.00;;;9.90
5571;BMP180;2808;51.240;6.794;2023-02-03T12:47:03;102041.00;;;9.90
5571;BMP180;2808;51.240;6.794;2023-02-03T12:49:42;102038.00;;;9.90
5571;BMP180;2808;51.240;6.794;2023-02-03T12:52:17;102033.00;;;10.00
5571;BMP180;2808;51.240;6.794;2023-02-03T12:54:51;102036.00;;;10.00
5571;BMP180;2808;51.240;6.794;2023-02-03T12:57:26;102039.00;;;10.00
5571;BMP180;2808;51.240;6.794;2023-02-03T13:00:12;102037.00;;;10.10
5571;BMP180;2808;51.240;6.794;2023-02-03T13:02:53;102044.00;;;10.10
5571;BMP180;2808;51.240;6.794;2023-02-03T13:05:27;102028.00;;;10.10
5571;BMP180;2808;51.240;6.794;2023-02-03T13:08:00;102033.00;;;10.20
5571;BMP180;2808;51.240;6.794;2023-02-03T13:10:37;102038.00;;;10.20
5571;BMP180;2808;51.240;6.794;2023-02-03T13:13:11;102037.00;;;10.20
5571;BMP180;2808;51.240;6.794;2023-02-03T13:15:43;102028.00;;;10.20
5571;BMP180;2808;51.240;6.794;2023-02-03T13:18:20;102027.00;;;10.30
5571;BMP180;2808;51.240;6.794;2023-02-03T13:20:53;102022.00;;;10.30
5571;BMP180;2808;51.240;6.794;2023-02-03T13:23:21;102031.00;;;10.40
5571;BMP180;2808;51.240;6.794;2023-02-03T13:29:10;102045.00;;;10.40
5571;BMP180;2808;51.240;6.794;2023-02-03T13:31:47;102037.00;;;10.50
5571;BMP180;2808;51.240;6.794;2023-02-03T13:34:34;102035.00;;;10.50
5571;BMP180;2808;51.240;6.794;2023-02-03T13:37:22;102030.00;;;10.50
5571;BMP180;2808;51.240;6.794;2023-02-03T13:40:08;102020.00;;;10.50
5571;BMP180;2808;51.240;6.794;2023-02-03T13:42:40;102018.00;;;10.50
5571;BMP180;2808;51.240;6.794;2023-02-03T13:45:15;102010.00;;;10.50
5571;BMP180;2808;51.240;6.794;2023-02-03T13:47:48;102005.00;;;10.50
5571;BMP180;2808;51.240;6.794;2023-02-03T13:50:20;102006.00;;;10.50
5571;BMP180;2808;51.240;6.794;2023-02-03T13:53:11;102006.00;;;10.50
5571;BMP180;2808;51.240;6.794;2023-02-03T13:55:50;102009.00;;;10.50
5571;BMP180;2808;51.240;6.794;2023-02-03T13:58:20;102022.00;;;10.50
5571;BMP180;2808;51.240;6.794;2023-02-03T14:01:04;102022.00;;;10.50
5571;BMP180;2808;51.240;6.794;2023-02-03T14:03:45;102032.00;;;10.50
5571;BMP180;2808;51.240;6.794;2023-02-03T14:12:56;102031.00;;;10.40
5571;BMP180;2808;51.240;6.794;2023-02-03T14:15:30;102038.00;;;10.40
5571;BMP180;2808;51.240;6.794;2023-02-03T14:23:58;102025.00;;;10.30
5571;BMP180;2808;51.240;6.794;2023-02-03T14:26:41;102023.00;;;10.30
5571;BMP180;2808;51.240;6.794;2023-02-03T14:29:22;102032.00;;;10.30
5571;BMP180;2808;51.240;6.794;2023-02-03T14:31:58;102035.00;;;10.30
5571;BMP180;2808;51.240;6.794;2023-02-03T14:34:30;102037.00;;;10.30
5571;BMP180;2808;51.240;6.794;2023-02-03T14:37:09;102035.00;;;10.30
5571;BMP180;2808;51.240;6.794;2023-02-03T14:40:08;102031.00;;;10.30
5571;BMP180;2808;51.240;6.794;2023-02-03T14:43:07;102050.00;;;10.30
5571;BMP180;2808;51.240;6.794;2023-02-03T14:46:01;102059.00;;;10.30
5571;BMP180;2808;51.240;6.794;2023-02-03T14:48:44;102061.00;;;10.30
5571;BMP180;2808;51.240;6.794;2023-02-03T14:51:19;102065.00;;;10.30
5571;BMP180;2808;51.240;6.794;2023-02-03T14:54:09;102068.00;;;10.30
5571;BMP180;2808;51.240;6.794;2023-02-03T14:56:46;102073.00;;;10.30
5571;BMP180;2808;51.240;6.794;2023-02-03T14:59:40;102068.00;;;10.30
5571;BMP180;2808;51.240;6.794;2023-02-03T15:02:19;102079.00;;;10.30
5571;BMP180;2808;51.240;6.794;2023-02-03T15:04:48;102077.00;;;10.30
5571;BMP180;2808;51.240;6.794;2023-02-03T15:07:36;102098.00;;;10.20
5571;BMP180;2808;51.240;6.794;2023-02-03T15:10:12;102107.00;;;10.20
5571;BMP180;2808;51.240;6.794;2023-02-03T15:12:45;102126.00;;;10.20
5571;BMP180;2808;51.240;6.794;2023-02-03T15:15:25;102145.00;;;10.10
5571;BMP180;2808;51.240;6.794;2023-02-03T15:17:54;102143.00;;;9.80
5571;BMP180;2808;51.240;6.794;2023-02-03T15:20:31;102137.00;;;9.60
5571;BMP180;2808;51.240;6.794;2023-02-03T15:22:59;102144.00;;;9.50
5571;BMP180;2808;51.240;6.794;2023-02-03T15:25:28;102139.00;;;9.40
5571;BMP180;2808;51.240;6.794;2023-02-03T15:28:10;102143.00;;;9.40
5571;BMP180;2808;51.240;6.794;2023-02-03T15:30:39;102146.00;;;9.30